Milford, Delaware
Current Conditions -  °F | °C
As of 5:45 PM on Monday 26 Jan 2015 (Local Time) from KDOV Reporting Station
Freezing Rain Freezing Rain  
Wind Chill: 21°   Ceiling: 1300
Heat Index: 32°   Visibility: 10mi
Dew Point: 32°   Wind: 16mph
Humidity: 100%   Direction: 360°N
Pressure: 29.7"   Gusts: NA
Location:  38.93°N, 75.43°W
Report Text: KDOV 262245Z AUTO 36014KT 10SM -FZRA OVC013 00/00 A2970 RMK AO2
Loading
Personal Weather Stations






























Interactive Weather Map New forecast layout! Learn more

10-Day Weather Forecast

Advertisements
Track Severe Weather on mobile